Time;durP1;ratioP1;P1;durP2;ratioP2;P2;SDS_P1;SDS_P2;PMS_P1;PMS_P2;Temp;Humidity;BMP_temperature;BMP_pressure;BME280_temperature;BME280_humidity;BME280_pressure;Samples;Min_cycle;Max_cycle;Signal;HPM_P1;HPM_P2
2021/12/26 00:01:10;;;;;;;11.50;4.00;;;4.20;99.90;;;;;;5014551;28;20484;-66
2021/12/26 00:03:37;;;;;;;9.07;4.70;;;4.20;99.90;;;;;;5014822;28;20460;-66
2021/12/26 00:06:07;;;;;;;9.83;4.87;;;4.20;99.90;;;;;;5014570;28;20430;-66
2021/12/26 00:08:36;;;;;;;15.93;6.00;;;4.20;99.90;;;;;;5014726;28;20414;-66
2021/12/26 00:11:04;;;;;;;8.67;4.73;;;4.20;99.90;;;;;;5014474;28;20469;-67
2021/12/26 00:13:30;;;;;;;17.90;5.83;;;4.20;99.90;;;;;;5014405;28;20480;-65
2021/12/26 00:15:57;;;;;;;16.27;4.83;;;4.20;99.90;;;;;;5014346;28;20899;-65
2021/12/26 00:18:23;;;;;;;15.40;5.17;;;4.10;99.90;;;;;;5014691;28;20882;-66
2021/12/26 00:20:49;;;;;;;18.50;5.07;;;4.10;99.90;;;;;;5015011;28;20425;-66
2021/12/26 00:23:15;;;;;;;24.87;5.90;;;4.10;99.90;;;;;;5014244;28;20614;-66
2021/12/26 00:25:42;;;;;;;13.43;5.80;;;4.10;99.90;;;;;;5014462;28;20501;-66
2021/12/26 00:28:08;;;;;;;10.10;4.40;;;4.10;99.90;;;;;;5014187;28;20414;-66
2021/12/26 00:30:33;;;;;;;12.43;4.87;;;4.00;99.90;;;;;;5014354;28;20425;-66
2021/12/26 00:32:59;;;;;;;9.73;4.20;;;4.10;99.90;;;;;;5014422;28;20187;-67
2021/12/26 00:35:26;;;;;;;15.47;5.40;;;4.10;99.90;;;;;;5014127;28;20187;-65
2021/12/26 00:37:51;;;;;;;12.97;4.63;;;4.00;99.90;;;;;;5014186;28;20418;-66
2021/12/26 00:40:19;;;;;;;11.20;4.70;;;4.00;99.90;;;;;;5014680;28;20425;-66
2021/12/26 00:42:47;;;;;;;30.07;6.33;;;4.00;99.90;;;;;;5014155;28;20227;-66
2021/12/26 00:45:12;;;;;;;8.87;4.00;;;4.10;99.90;;;;;;5014400;28;20456;-66
2021/12/26 00:47:39;;;;;;;12.90;4.57;;;4.00;99.90;;;;;;5013930;28;20414;-65
2021/12/26 00:50:08;;;;;;;11.63;4.20;;;4.10;99.90;;;;;;5013352;28;20195;-65
2021/12/26 00:52:34;;;;;;;9.60;5.03;;;4.00;99.90;;;;;;5013808;28;20414;-65
2021/12/26 00:55:00;;;;;;;20.20;5.43;;;4.10;99.90;;;;;;5013773;28;20449;-65
2021/12/26 00:57:26;;;;;;;14.33;4.90;;;4.00;99.90;;;;;;5014035;28;20593;-65
2021/12/26 00:59:51;;;;;;;5.23;3.20;;;4.00;99.90;;;;;;5013609;28;20565;-66
2021/12/26 01:02:17;;;;;;;16.13;5.03;;;4.00;99.90;;;;;;5014000;28;20238;-66
2021/12/26 01:04:44;;;;;;;13.93;5.80;;;4.00;99.90;;;;;;5013591;28;20274;-66
2021/12/26 01:07:23;;;;;;;18.10;5.40;;;4.00;99.90;;;;;;5013900;28;20472;-66
2021/12/26 01:09:52;;;;;;;12.10;6.00;;;4.00;99.90;;;;;;5013688;28;20152;-63
2021/12/26 01:12:18;;;;;;;10.43;4.80;;;4.00;99.90;;;;;;5013858;28;20469;-64
2021/12/26 01:14:50;;;;;;;13.70;6.20;;;4.00;99.90;;;;;;5013548;28;20414;-63
2021/12/26 01:17:20;;;;;;;12.53;5.73;;;3.90;99.90;;;;;;5013819;28;20399;-64
2021/12/26 01:19:49;;;;;;;14.23;4.70;;;3.90;99.90;;;;;;5013449;28;20406;-63
2021/12/26 01:22:17;;;;;;;11.80;5.27;;;3.90;99.90;;;;;;5013625;28;20484;-63
2021/12/26 01:24:44;;;;;;;25.53;6.20;;;3.90;99.90;;;;;;5013717;28;20410;-63
2021/12/26 01:27:10;;;;;;;26.77;6.30;;;3.90;99.90;;;;;;5013381;28;20444;-64
2021/12/26 01:29:36;;;;;;;12.47;5.87;;;3.80;99.90;;;;;;5013484;28;20501;-64
2021/12/26 01:32:04;;;;;;;21.77;5.80;;;3.80;99.90;;;;;;5013361;28;20951;-63
2021/12/26 01:34:30;;;;;;;13.70;5.60;;;3.70;99.90;;;;;;5013540;28;20191;-64
2021/12/26 01:36:56;;;;;;;16.23;5.63;;;3.70;99.90;;;;;;5013602;28;20414;-64
2021/12/26 01:39:22;;;;;;;13.70;6.60;;;3.70;99.90;;;;;;5013289;28;20180;-64
2021/12/26 01:41:49;;;;;;;19.43;6.07;;;3.60;99.90;;;;;;5013222;28;20406;-64
2021/12/26 01:44:15;;;;;;;13.60;5.83;;;3.60;99.90;;;;;;5013226;28;20460;-64
2021/12/26 01:46:43;;;;;;;12.93;6.03;;;3.60;99.90;;;;;;5013424;28;20421;-64
2021/12/26 01:49:23;;;;;;;10.57;6.57;;;3.60;99.90;;;;;;5013097;28;20422;-64
2021/12/26 01:51:52;;;;;;;12.53;5.60;;;3.50;99.90;;;;;;5013192;28;20570;-65
2021/12/26 01:57:18;;;;;;;16.20;5.90;;;3.50;99.90;;;;;;5012579;28;20896;-63
2021/12/26 01:59:46;;;;;;;24.37;6.60;;;3.50;99.90;;;;;;5013171;28;20430;-63
2021/12/26 02:02:13;;;;;;;15.27;6.27;;;3.40;99.90;;;;;;5013217;28;20910;-64
2021/12/26 02:04:40;;;;;;;13.20;5.80;;;3.50;99.90;;;;;;5017074;28;20417;-63
2021/12/26 02:07:08;;;;;;;15.93;5.67;;;3.50;99.90;;;;;;5016806;28;20790;-63
2021/12/26 02:09:35;;;;;;;20.57;6.80;;;3.40;99.90;;;;;;5016737;28;20408;-63
2021/12/26 02:12:01;;;;;;;13.40;6.20;;;3.50;99.90;;;;;;5016693;28;20413;-63
2021/12/26 02:14:27;;;;;;;12.00;5.47;;;3.60;99.90;;;;;;5016662;28;20422;-64
2021/12/26 02:16:52;;;;;;;18.93;7.30;;;3.60;99.90;;;;;;5016606;28;20418;-64
2021/12/26 02:19:18;;;;;;;17.70;5.73;;;3.60;99.90;;;;;;5016638;28;20222;-64
2021/12/26 02:27:33;;;;;;;24.83;6.60;;;3.70;99.90;;;;;;5013477;28;20913;-63
2021/12/26 02:30:01;;;;;;;14.30;5.90;;;3.70;99.90;;;;;;5016491;28;20413;-63
2021/12/26 02:32:28;;;;;;;13.97;7.20;;;3.70;99.90;;;;;;5016821;28;20939;-63
2021/12/26 02:34:55;;;;;;;14.43;6.37;;;3.70;99.90;;;;;;5016575;28;20714;-63
2021/12/26 02:37:20;;;;;;;15.43;6.80;;;3.70;99.90;;;;;;5016730;28;20530;-63
2021/12/26 02:39:46;;;;;;;17.30;5.33;;;3.70;99.90;;;;;;5016193;28;20838;-64
2021/12/26 02:42:12;;;;;;;18.83;6.43;;;3.70;99.90;;;;;;5016004;28;20183;-63
2021/12/26 02:44:37;;;;;;;14.90;5.77;;;3.70;99.90;;;;;;5016111;28;20297;-63
2021/12/26 02:47:03;;;;;;;25.27;6.10;;;3.70;99.90;;;;;;5016211;28;20197;-63
2021/12/26 02:49:29;;;;;;;23.33;8.30;;;3.70;99.90;;;;;;5016286;28;20171;-64
2021/12/26 02:51:54;;;;;;;19.07;6.60;;;3.70;99.90;;;;;;5016048;28;20171;-63
2021/12/26 02:54:24;;;;;;;18.13;6.27;;;3.70;99.90;;;;;;5015952;28;20608;-63
2021/12/26 02:56:50;;;;;;;20.30;7.10;;;3.70;99.90;;;;;;5015938;28;20210;-63
2021/12/26 02:59:15;;;;;;;18.90;7.10;;;3.70;99.90;;;;;;5016052;28;20453;-63
2021/12/26 03:01:41;;;;;;;17.73;6.93;;;3.70;99.90;;;;;;5015679;28;20624;-63
2021/12/26 03:04:08;;;;;;;24.73;6.20;;;3.60;99.90;;;;;;5015910;28;20226;-63
2021/12/26 03:06:47;;;;;;;18.40;7.53;;;3.60;99.90;;;;;;5015687;28;20229;-63
2021/12/26 03:09:12;;;;;;;11.53;5.87;;;3.70;99.90;;;;;;5015901;28;20808;-63
2021/12/26 03:11:39;;;;;;;15.07;6.90;;;3.70;99.90;;;;;;5015598;28;20417;-63
2021/12/26 03:14:06;;;;;;;14.20;7.00;;;3.70;99.90;;;;;;5015041;28;20218;-64
2021/12/26 03:16:31;;;;;;;15.10;5.77;;;3.70;99.90;;;;;;5015624;28;20419;-63
2021/12/26 03:18:59;;;;;;;16.60;7.83;;;3.70;99.90;;;;;;5015522;28;20468;-63
2021/12/26 03:21:27;;;;;;;14.67;6.63;;;3.70;99.90;;;;;;5015697;28;20179;-63
2021/12/26 03:23:53;;;;;;;16.33;6.40;;;3.60;99.90;;;;;;5015273;28;20544;-62
2021/12/26 03:26:19;;;;;;;15.03;6.53;;;3.50;99.90;;;;;;5015326;28;20502;-63
2021/12/26 03:28:44;;;;;;;34.37;7.70;;;3.50;99.90;;;;;;5015690;28;20203;-63
2021/12/26 03:31:10;;;;;;;18.43;8.60;;;3.40;99.90;;;;;;5015161;28;20533;-63
2021/12/26 03:33:36;;;;;;;17.30;6.20;;;3.40;99.90;;;;;;5015387;28;20216;-63
2021/12/26 03:36:03;;;;;;;17.63;8.50;;;3.30;99.90;;;;;;5015070;28;20514;-64
2021/12/26 03:38:29;;;;;;;15.70;6.53;;;3.30;99.90;;;;;;5015292;28;20666;-63
2021/12/26 03:40:55;;;;;;;19.37;6.50;;;3.20;99.90;;;;;;5015036;28;20873;-65
2021/12/26 03:43:22;;;;;;;18.30;7.73;;;3.20;99.90;;;;;;5011265;28;20597;-63
2021/12/26 03:45:48;;;;;;;22.70;7.97;;;3.20;99.90;;;;;;4995393;28;20464;-63
2021/12/26 03:48:14;;;;;;;18.23;7.60;;;3.20;99.90;;;;;;4995808;28;20822;-64
2021/12/26 03:50:41;;;;;;;18.23;7.97;;;3.20;99.90;;;;;;4995485;28;20423;-64
2021/12/26 03:53:09;;;;;;;23.23;6.70;;;3.20;99.90;;;;;;4995253;28;20876;-63
2021/12/26 03:55:35;;;;;;;14.33;6.97;;;3.30;99.90;;;;;;4995214;28;20530;-63
2021/12/26 03:58:00;;;;;;;19.10;8.60;;;3.20;99.90;;;;;;4995359;28;20419;-63
2021/12/26 04:00:28;;;;;;;16.47;6.67;;;3.30;99.90;;;;;;4994995;28;20442;-64
2021/12/26 04:02:54;;;;;;;19.93;7.30;;;3.20;99.90;;;;;;4995534;28;20203;-63
2021/12/26 04:05:21;;;;;;;20.67;7.63;;;3.30;99.90;;;;;;4994985;28;20777;-63
2021/12/26 04:07:47;;;;;;;31.60;9.30;;;3.30;99.90;;;;;;4995235;28;20884;-63
2021/12/26 04:10:15;;;;;;;15.53;7.27;;;3.30;99.90;;;;;;4994892;28;20419;-63
2021/12/26 04:12:46;;;;;;;21.00;7.10;;;3.30;99.90;;;;;;4994852;28;20227;-63
2021/12/26 04:15:14;;;;;;;13.97;6.63;;;3.30;99.90;;;;;;4995053;28;20482;-63
2021/12/26 04:17:40;;;;;;;14.50;8.23;;;3.30;99.90;;;;;;4994837;28;20470;-63
2021/12/26 04:20:08;;;;;;;28.50;8.90;;;3.30;99.90;;;;;;4995280;28;20419;-63
2021/12/26 04:22:34;;;;;;;20.67;8.77;;;3.30;99.90;;;;;;4994721;28;20517;-63
2021/12/26 04:25:00;;;;;;;29.40;8.23;;;3.30;99.90;;;;;;4994013;28;20467;-63
2021/12/26 04:27:26;;;;;;;31.80;8.80;;;3.30;99.90;;;;;;4994787;28;20230;-63
2021/12/26 04:29:53;;;;;;;21.87;7.77;;;3.30;99.90;;;;;;4994623;28;20183;-63
2021/12/26 04:32:18;;;;;;;19.07;8.23;;;3.30;99.90;;;;;;4994885;28;20490;-63
2021/12/26 04:34:45;;;;;;;23.97;8.50;;;3.30;99.90;;;;;;4994435;28;20530;-64
2021/12/26 04:37:10;;;;;;;18.40;8.90;;;3.30;99.90;;;;;;4994430;28;20179;-64
2021/12/26 04:39:36;;;;;;;20.30;9.20;;;3.30;99.90;;;;;;4994255;28;20425;-64
2021/12/26 04:42:02;;;;;;;23.10;9.20;;;3.30;99.90;;;;;;4994234;28;20187;-64
2021/12/26 04:44:28;;;;;;;21.90;8.60;;;3.30;99.90;;;;;;4994768;28;20258;-64
2021/12/26 04:46:54;;;;;;;22.10;9.17;;;3.40;99.90;;;;;;5005473;28;20808;-63
2021/12/26 04:49:20;;;;;;;20.10;8.47;;;3.40;99.90;;;;;;5013829;28;20450;-64
2021/12/26 04:51:46;;;;;;;16.23;7.43;;;3.30;99.90;;;;;;5013725;28;20805;-63
2021/12/26 04:54:13;;;;;;;14.47;7.37;;;3.40;99.90;;;;;;5013558;28;20874;-63
2021/12/26 04:56:39;;;;;;;21.67;7.97;;;3.30;99.90;;;;;;5013722;28;20422;-64
2021/12/26 04:59:05;;;;;;;18.57;7.70;;;3.30;99.90;;;;;;5014032;28;20406;-63
2021/12/26 05:01:31;;;;;;;21.73;7.20;;;3.30;99.90;;;;;;5013428;28;20209;-63
2021/12/26 05:03:57;;;;;;;21.27;8.60;;;3.20;99.90;;;;;;5013467;28;20206;-63
2021/12/26 05:06:26;;;;;;;27.13;8.10;;;3.20;99.90;;;;;;5013446;28;20502;-63
2021/12/26 05:08:52;;;;;;;31.90;8.93;;;3.40;99.90;;;;;;5013329;28;20422;-64
2021/12/26 05:11:17;;;;;;;20.07;8.57;;;3.20;99.90;;;;;;5013330;28;20449;-63
2021/12/26 05:13:43;;;;;;;14.43;6.90;;;3.20;99.90;;;;;;5013395;28;20632;-64
2021/12/26 05:16:09;;;;;;;19.70;6.97;;;3.20;99.90;;;;;;5013544;28;20614;-63
2021/12/26 05:18:34;;;;;;;21.53;7.90;;;3.20;99.90;;;;;;5013346;28;20218;-63
2021/12/26 05:21:00;;;;;;;27.60;8.87;;;3.20;99.90;;;;;;5013534;28;20183;-63
2021/12/26 05:23:26;;;;;;;37.37;8.30;;;3.20;99.90;;;;;;5013606;28;20277;-63
2021/12/26 05:25:52;;;;;;;26.33;8.70;;;3.10;99.90;;;;;;5013284;28;20205;-64
2021/12/26 05:28:17;;;;;;;28.47;9.50;;;3.10;99.90;;;;;;5013495;28;20804;-63
2021/12/26 05:30:43;;;;;;;25.67;7.90;;;3.10;99.90;;;;;;5013359;28;20171;-63
2021/12/26 05:33:09;;;;;;;19.23;8.10;;;3.10;99.90;;;;;;5013568;28;20302;-64
2021/12/26 05:35:34;;;;;;;39.40;10.10;;;3.10;99.90;;;;;;5013411;28;20183;-64
2021/12/26 05:38:00;;;;;;;24.63;9.40;;;3.10;99.90;;;;;;5016517;28;20194;-64
2021/12/26 05:40:26;;;;;;;30.23;7.80;;;3.20;99.90;;;;;;5017317;28;20209;-64
2021/12/26 05:42:52;;;;;;;24.53;10.10;;;3.20;99.90;;;;;;5017590;28;20457;-64
2021/12/26 05:45:19;;;;;;;35.90;9.50;;;3.20;99.90;;;;;;5016916;28;20175;-64
2021/12/26 05:47:45;;;;;;;24.90;8.67;;;3.20;99.90;;;;;;5015987;28;20572;-63
2021/12/26 05:50:13;;;;;;;15.87;6.50;;;3.20;99.90;;;;;;5017052;28;20410;-64
2021/12/26 05:52:40;;;;;;;22.47;7.77;;;3.30;99.90;;;;;;5016827;28;20436;-64
2021/12/26 05:55:07;;;;;;;32.00;9.77;;;3.30;99.90;;;;;;5016809;28;20464;-64
2021/12/26 05:57:33;;;;;;;28.70;10.67;;;3.30;99.90;;;;;;5016801;28;20425;-64
2021/12/26 05:59:59;;;;;;;25.50;8.10;;;3.30;99.90;;;;;;5016766;28;20956;-64
2021/12/26 06:02:25;;;;;;;21.70;8.83;;;3.40;99.90;;;;;;5016930;28;20477;-64
2021/12/26 06:04:51;;;;;;;23.67;7.80;;;3.40;99.90;;;;;;5016732;28;20194;-63
2021/12/26 06:07:17;;;;;;;22.90;8.00;;;3.50;99.90;;;;;;5016895;28;20221;-64
2021/12/26 06:09:42;;;;;;;19.33;6.90;;;3.40;99.90;;;;;;5016470;28;20182;-64
2021/12/26 06:12:08;;;;;;;16.73;8.60;;;3.40;99.90;;;;;;5016782;28;20418;-64
2021/12/26 06:14:34;;;;;;;19.53;7.30;;;3.40;99.90;;;;;;5016442;28;20182;-64
2021/12/26 06:17:00;;;;;;;18.53;7.37;;;3.40;99.90;;;;;;5016433;28;20409;-64
2021/12/26 06:19:26;;;;;;;30.53;10.27;;;3.40;99.90;;;;;;5016610;28;20528;-63
2021/12/26 06:21:51;;;;;;;16.97;8.80;;;3.50;99.90;;;;;;5016387;28;20233;-63
2021/12/26 06:24:17;;;;;;;17.90;7.07;;;3.40;99.90;;;;;;5016242;28;20207;-64
2021/12/26 06:26:43;;;;;;;18.20;7.47;;;3.40;99.90;;;;;;5016436;28;20202;-63
2021/12/26 06:29:08;;;;;;;20.07;8.90;;;3.40;99.90;;;;;;5016759;28;20207;-64
2021/12/26 06:31:34;;;;;;;20.07;8.47;;;3.40;99.90;;;;;;5016193;28;20179;-65
2021/12/26 06:34:00;;;;;;;17.90;7.83;;;3.50;99.90;;;;;;5016069;28;20658;-63
2021/12/26 06:36:26;;;;;;;17.47;7.30;;;3.50;99.90;;;;;;5016551;28;20887;-64
2021/12/26 06:38:51;;;;;;;19.97;8.27;;;3.50;99.90;;;;;;5016068;28;20605;-64
2021/12/26 06:41:17;;;;;;;18.43;6.67;;;3.50;99.90;;;;;;5016183;28;20179;-64
2021/12/26 06:43:44;;;;;;;20.13;8.23;;;3.50;99.90;;;;;;5016161;28;20249;-64
2021/12/26 06:46:10;;;;;;;24.00;9.47;;;3.50;99.90;;;;;;5016377;28;20259;-64
2021/12/26 06:48:38;;;;;;;27.50;8.57;;;3.50;99.90;;;;;;5014965;28;20511;-63
2021/12/26 06:51:04;;;;;;;21.83;8.00;;;3.60;99.90;;;;;;5016354;28;20171;-64
2021/12/26 06:53:30;;;;;;;23.87;7.87;;;3.60;99.90;;;;;;5015904;28;20422;-64
2021/12/26 06:55:55;;;;;;;17.20;7.90;;;3.60;99.90;;;;;;5015794;28;20305;-63
2021/12/26 06:58:21;;;;;;;30.17;9.13;;;3.60;99.90;;;;;;5016287;28;20206;-63
2021/12/26 07:00:47;;;;;;;16.03;6.40;;;3.60;99.90;;;;;;5015504;28;20672;-64
2021/12/26 07:03:13;;;;;;;18.33;7.57;;;3.60;99.90;;;;;;5015550;28;20545;-65
2021/12/26 07:05:39;;;;;;;11.63;6.57;;;3.60;99.90;;;;;;5015688;28;20418;-63
2021/12/26 07:08:06;;;;;;;19.43;7.60;;;3.70;99.90;;;;;;5015781;28;20175;-64
2021/12/26 07:10:33;;;;;;;23.47;9.73;;;3.50;99.90;;;;;;5015496;28;20659;-64
2021/12/26 07:12:58;;;;;;;20.37;8.30;;;3.60;99.90;;;;;;5015475;28;20549;-63
2021/12/26 07:15:25;;;;;;;18.13;7.53;;;3.60;99.90;;;;;;5015387;28;20513;-65
2021/12/26 07:17:51;;;;;;;18.67;8.57;;;3.60;99.90;;;;;;5015387;28;20547;-64
2021/12/26 07:20:17;;;;;;;20.60;7.33;;;3.70;99.90;;;;;;5015372;28;20410;-63
2021/12/26 07:22:46;;;;;;;17.23;7.60;;;3.60;99.90;;;;;;5015286;28;20480;-64
2021/12/26 07:25:12;;;;;;;19.23;7.80;;;3.70;99.90;;;;;;5015450;28;20414;-63
2021/12/26 07:27:38;;;;;;;20.00;8.60;;;3.70;99.90;;;;;;5015441;28;20441;-64
2021/12/26 07:30:05;;;;;;;24.20;9.00;;;3.70;99.90;;;;;;5015158;28;20425;-63
2021/12/26 07:32:31;;;;;;;15.63;7.90;;;3.70;99.90;;;;;;5015295;28;20410;-66
2021/12/26 07:35:00;;;;;;;23.10;9.23;;;3.80;99.90;;;;;;5014963;28;20913;-65
2021/12/26 07:37:27;;;;;;;16.97;6.97;;;3.80;99.90;;;;;;5015055;28;20225;-64
2021/12/26 07:39:54;;;;;;;23.33;7.47;;;3.80;99.90;;;;;;5015044;28;20406;-64
2021/12/26 07:42:19;;;;;;;17.83;6.90;;;3.80;99.90;;;;;;5014855;28;20949;-65
2021/12/26 07:44:45;;;;;;;20.33;10.93;;;3.80;99.90;;;;;;5014959;28;20418;-64
2021/12/26 07:47:11;;;;;;;31.13;12.80;;;3.80;99.90;;;;;;5015101;28;20187;-65
2021/12/26 07:49:36;;;;;;;33.77;11.80;;;3.80;99.90;;;;;;5014872;28;20175;-65
2021/12/26 07:52:10;;;;;;;22.00;10.20;;;3.90;99.90;;;;;;5014956;28;20195;-66
2021/12/26 07:54:35;;;;;;;21.50;8.70;;;3.80;99.90;;;;;;5014820;28;20520;-65
2021/12/26 07:57:01;;;;;;;19.93;9.17;;;3.90;99.90;;;;;;5014705;28;20402;-65
2021/12/26 07:59:27;;;;;;;25.53;11.60;;;3.90;99.90;;;;;;5014480;28;20175;-65
2021/12/26 08:01:53;;;;;;;21.90;11.07;;;3.90;99.90;;;;;;5014648;28;20600;-65
2021/12/26 08:04:18;;;;;;;25.20;8.63;;;3.90;99.90;;;;;;5014498;28;20561;-65
2021/12/26 08:06:44;;;;;;;21.20;8.83;;;3.90;99.90;;;;;;5014516;28;20647;-65
2021/12/26 08:09:10;;;;;;;22.30;9.37;;;4.00;99.90;;;;;;5014732;28;20518;-64
2021/12/26 08:11:37;;;;;;;21.13;8.47;;;4.00;99.90;;;;;;5014845;28;20175;-66
2021/12/26 08:14:02;;;;;;;15.87;8.93;;;4.00;99.90;;;;;;5014469;28;20579;-65
2021/12/26 08:16:28;;;;;;;20.00;9.00;;;4.00;99.90;;;;;;5014354;28;20442;-65
2021/12/26 08:18:54;;;;;;;20.23;9.10;;;4.00;99.90;;;;;;5014384;28;20175;-65
2021/12/26 08:21:20;;;;;;;18.03;7.80;;;4.00;99.90;;;;;;5014210;28;20258;-65
2021/12/26 08:23:46;;;;;;;28.50;10.10;;;4.10;99.90;;;;;;5014186;28;20626;-65
2021/12/26 08:26:12;;;;;;;17.50;7.40;;;4.00;99.90;;;;;;5014170;28;20203;-65
2021/12/26 08:28:38;;;;;;;19.23;8.63;;;4.10;99.90;;;;;;5014102;28;20205;-65
2021/12/26 08:31:04;;;;;;;17.60;8.17;;;4.10;99.90;;;;;;5013985;28;20772;-65
2021/12/26 08:33:31;;;;;;;22.40;9.30;;;4.10;99.90;;;;;;5013992;28;20442;-65
2021/12/26 08:35:57;;;;;;;14.40;7.00;;;4.20;99.90;;;;;;5014086;28;20422;-66
2021/12/26 08:38:23;;;;;;;14.37;7.20;;;4.20;99.90;;;;;;5014441;28;20414;-65
2021/12/26 08:40:53;;;;;;;11.10;5.53;;;4.30;99.90;;;;;;5014095;28;20421;-66
2021/12/26 08:43:20;;;;;;;14.30;6.27;;;4.30;99.90;;;;;;5013994;28;20449;-66
2021/12/26 08:45:46;;;;;;;14.70;6.57;;;4.30;99.90;;;;;;5013879;28;20913;-65
2021/12/26 08:48:12;;;;;;;15.87;5.80;;;4.40;99.90;;;;;;5013840;28;20922;-65
2021/12/26 08:50:38;;;;;;;11.50;5.10;;;4.40;99.90;;;;;;5013844;28;20414;-65
2021/12/26 08:53:04;;;;;;;14.30;4.67;;;4.50;99.90;;;;;;5013849;28;20171;-65
2021/12/26 08:55:30;;;;;;;11.67;4.97;;;4.50;99.90;;;;;;5013939;28;20214;-67
2021/12/26 08:57:56;;;;;;;7.80;4.77;;;4.50;99.90;;;;;;5013766;28;20945;-66
2021/12/26 09:00:22;;;;;;;10.80;5.50;;;4.60;99.90;;;;;;5013845;28;20547;-66
2021/12/26 09:02:49;;;;;;;16.53;5.90;;;4.60;99.90;;;;;;5013871;28;20203;-66
2021/12/26 09:05:16;;;;;;;11.87;4.33;;;4.60;99.90;;;;;;5013815;28;20891;-66
2021/12/26 09:07:42;;;;;;;14.30;7.10;;;4.70;99.90;;;;;;5014308;28;20432;-66
2021/12/26 09:10:09;;;;;;;19.30;7.57;;;4.70;99.90;;;;;;5013507;28;20410;-65
2021/12/26 09:12:35;;;;;;;16.90;6.93;;;4.70;99.90;;;;;;5013068;28;20422;-65
2021/12/26 09:15:01;;;;;;;18.33;7.80;;;4.80;99.90;;;;;;5013936;28;20875;-66
2021/12/26 09:17:26;;;;;;;15.53;6.57;;;4.80;99.90;;;;;;5013760;28;20201;-66
2021/12/26 09:19:52;;;;;;;20.50;6.20;;;4.90;99.90;;;;;;5013663;28;20202;-65
2021/12/26 09:22:18;;;;;;;15.77;7.80;;;4.80;99.90;;;;;;5013593;28;20179;-65
2021/12/26 09:24:45;;;;;;;21.40;7.50;;;4.80;99.90;;;;;;5013531;28;20628;-66
2021/12/26 09:27:12;;;;;;;20.93;8.80;;;4.80;99.90;;;;;;5013344;28;20555;-66
2021/12/26 09:29:38;;;;;;;14.77;6.60;;;4.80;99.90;;;;;;5013301;28;20402;-66
2021/12/26 09:32:04;;;;;;;13.93;6.40;;;4.80;99.90;;;;;;5013587;28;20418;-65
2021/12/26 09:34:33;;;;;;;18.93;7.80;;;4.80;99.90;;;;;;5013636;28;20213;-66
2021/12/26 09:37:00;;;;;;;12.83;6.23;;;4.80;99.90;;;;;;5013324;28;20769;-66
2021/12/26 09:39:26;;;;;;;24.20;7.37;;;4.90;99.90;;;;;;5013589;28;20426;-65
2021/12/26 09:41:52;;;;;;;15.63;6.70;;;4.90;99.90;;;;;;5013589;28;20901;-66
2021/12/26 09:44:18;;;;;;;17.50;7.30;;;4.90;99.90;;;;;;5013265;28;20226;-66
2021/12/26 09:46:44;;;;;;;14.00;7.00;;;5.00;99.90;;;;;;5013182;28;20171;-65
2021/12/26 09:49:10;;;;;;;13.90;6.33;;;5.10;99.90;;;;;;5013507;28;20422;-65
2021/12/26 09:51:36;;;;;;;14.17;6.53;;;5.10;99.90;;;;;;5013233;28;20175;-66
2021/12/26 09:54:03;;;;;;;16.63;8.00;;;5.10;99.90;;;;;;5013226;28;20183;-66
2021/12/26 09:56:29;;;;;;;18.53;8.40;;;5.10;99.90;;;;;;5011240;28;20418;-67
2021/12/26 09:59:14;;;;;;;12.10;6.97;;;5.20;99.90;;;;;;4992911;28;20468;-67
2021/12/26 10:01:42;;;;;;;14.60;7.30;;;5.30;99.90;;;;;;4998857;28;20259;-66
2021/12/26 10:04:19;;;;;;;17.67;8.30;;;5.40;99.90;;;;;;4993553;28;20465;-66
2021/12/26 10:06:47;;;;;;;11.43;6.33;;;5.50;99.90;;;;;;4993371;28;20415;-66
2021/12/26 10:09:13;;;;;;;13.83;7.03;;;5.50;99.90;;;;;;4993278;28;20737;-67
2021/12/26 10:11:45;;;;;;;12.17;6.77;;;5.70;99.90;;;;;;4993422;28;20407;-66
2021/12/26 10:14:14;;;;;;;10.73;5.73;;;5.70;99.90;;;;;;4993309;28;20410;-65
2021/12/26 10:16:51;;;;;;;11.67;5.00;;;5.70;99.90;;;;;;4993328;28;20895;-65
2021/12/26 10:19:18;;;;;;;8.67;4.80;;;5.70;99.90;;;;;;4993393;28;20911;-66
2021/12/26 10:21:47;;;;;;;11.10;4.27;;;5.70;99.90;;;;;;4993466;28;20454;-66
2021/12/26 10:24:26;;;;;;;10.20;5.40;;;5.80;99.90;;;;;;4994797;28;20848;-66
2021/12/26 10:27:14;;;;;;;7.27;3.97;;;5.80;99.90;;;;;;4996813;28;20407;-66
2021/12/26 10:29:45;;;;;;;5.10;2.43;;;5.90;99.90;;;;;;4996106;28;20434;-66
2021/12/26 10:32:20;;;;;;;8.10;3.23;;;6.00;99.90;;;;;;4996579;28;20419;-66
2021/12/26 10:34:49;;;;;;;3.90;2.00;;;6.00;99.90;;;;;;4996873;28;20840;-65
2021/12/26 10:37:24;;;;;;;3.93;2.30;;;6.10;99.90;;;;;;4996561;28;20419;-66
2021/12/26 10:39:56;;;;;;;4.80;2.70;;;6.00;99.90;;;;;;4996652;28;20406;-66
2021/12/26 10:42:32;;;;;;;8.23;3.20;;;6.10;99.90;;;;;;4996618;28;20447;-66
2021/12/26 10:45:00;;;;;;;3.07;1.90;;;6.10;99.90;;;;;;4996700;28;20426;-66
2021/12/26 10:47:31;;;;;;;3.30;2.03;;;6.10;99.90;;;;;;4996686;28;20445;-67
2021/12/26 10:50:11;;;;;;;3.97;2.33;;;6.20;99.90;;;;;;4996578;28;20410;-66
2021/12/26 10:52:55;;;;;;;3.37;1.87;;;6.10;99.90;;;;;;4996563;28;20738;-66
2021/12/26 10:55:36;;;;;;;4.53;2.27;;;6.20;99.90;;;;;;4996344;28;20427;-66
2021/12/26 10:58:14;;;;;;;3.07;1.80;;;6.20;99.90;;;;;;4996639;28;20901;-65
2021/12/26 11:00:58;;;;;;;3.30;2.10;;;6.30;99.90;;;;;;4996121;28;20493;-65
2021/12/26 11:03:27;;;;;;;3.63;1.93;;;6.40;99.90;;;;;;4996081;28;20474;-65
2021/12/26 11:06:03;;;;;;;4.93;2.20;;;6.60;99.90;;;;;;4996169;28;20408;-66
2021/12/26 11:08:35;;;;;;;3.37;1.90;;;6.80;99.90;;;;;;4996116;28;20437;-66
2021/12/26 11:11:10;;;;;;;3.00;1.90;;;6.90;99.90;;;;;;4996154;28;20395;-66
2021/12/26 11:13:36;;;;;;;2.43;0.83;;;7.10;99.90;;;;;;4996142;28;20407;-66
2021/12/26 11:16:07;;;;;;;3.33;1.63;;;7.20;99.90;;;;;;4995985;28;20453;-65
2021/12/26 11:18:35;;;;;;;3.50;1.33;;;7.20;99.90;;;;;;4995954;28;20512;-66
2021/12/26 11:21:07;;;;;;;2.83;1.20;;;7.20;99.90;;;;;;4995996;28;20411;-66
2021/12/26 11:23:38;;;;;;;2.37;1.00;;;7.20;99.90;;;;;;4996033;28;20443;-66
2021/12/26 11:26:13;;;;;;;2.33;1.37;;;7.20;99.90;;;;;;4995802;28;20399;-65
2021/12/26 11:28:41;;;;;;;2.93;1.47;;;7.20;99.90;;;;;;4995774;28;20429;-66
2021/12/26 11:31:16;;;;;;;5.73;1.57;;;7.30;99.90;;;;;;4996187;28;20407;-66
2021/12/26 11:33:42;;;;;;;3.27;2.13;;;7.30;99.90;;;;;;4995748;28;20403;-66
2021/12/26 11:36:11;;;;;;;4.47;1.70;;;7.40;99.90;;;;;;4995070;28;20769;-65
2021/12/26 11:38:39;;;;;;;2.77;1.53;;;7.50;99.90;;;;;;4995540;28;20171;-66
2021/12/26 11:41:22;;;;;;;2.47;1.20;;;7.60;99.90;;;;;;5003955;28;20429;-66
2021/12/26 11:44:03;;;;;;;1.80;1.00;;;7.70;99.90;;;;;;5014711;28;20957;-66
2021/12/26 11:46:34;;;;;;;2.33;1.00;;;7.80;99.90;;;;;;5014969;28;20491;-65
2021/12/26 11:49:07;;;;;;;1.70;0.90;;;7.90;99.90;;;;;;5014681;28;20798;-65
2021/12/26 11:51:36;;;;;;;2.00;0.90;;;8.00;99.90;;;;;;5014806;28;20426;-66
2021/12/26 11:54:30;;;;;;;1.90;1.03;;;8.30;99.90;;;;;;5015060;28;20406;-66
2021/12/26 11:57:01;;;;;;;1.87;1.00;;;8.50;99.90;;;;;;5014761;28;20406;-65
2021/12/26 11:59:32;;;;;;;1.90;1.10;;;8.70;99.90;;;;;;5014614;28;20417;-65
2021/12/26 12:01:58;;;;;;;2.60;1.13;;;8.80;99.90;;;;;;5014791;28;20773;-66
2021/12/26 12:04:25;;;;;;;2.00;0.90;;;8.80;99.90;;;;;;5014586;28;20851;-65
2021/12/26 12:06:54;;;;;;;2.30;1.13;;;8.70;99.90;;;;;;5014510;28;20422;-66
2021/12/26 12:09:32;;;;;;;1.60;0.87;;;8.60;99.90;;;;;;5014481;28;20408;-66
2021/12/26 12:12:04;;;;;;;1.33;0.60;;;8.40;99.90;;;;;;5014639;28;20394;-65
2021/12/26 12:14:56;;;;;;;2.10;1.00;;;8.30;99.90;;;;;;5014498;28;20472;-66
2021/12/26 12:17:32;;;;;;;2.00;1.07;;;8.20;99.90;;;;;;5014471;28;20785;-66
2021/12/26 12:20:17;;;;;;;2.90;1.30;;;8.30;99.90;;;;;;5014436;28;20413;-66
2021/12/26 12:23:04;;;;;;;2.10;1.07;;;8.40;99.90;;;;;;5014298;28;20804;-65
2021/12/26 12:25:33;;;;;;;2.97;1.47;;;8.30;99.90;;;;;;5014264;28;20402;-66
2021/12/26 12:28:05;;;;;;;3.27;1.73;;;8.30;99.90;;;;;;5014243;28;20509;-65
2021/12/26 12:30:30;;;;;;;5.97;2.00;;;8.30;99.90;;;;;;5014210;28;20883;-65
2021/12/26 12:33:28;;;;;;;3.00;1.50;;;8.10;99.90;;;;;;5014273;28;20398;-66
2021/12/26 12:36:03;;;;;;;2.13;1.63;;;8.00;99.90;;;;;;5014200;28;20580;-66
2021/12/26 12:38:47;;;;;;;6.30;1.80;;;8.00;99.90;;;;;;5014066;28;20505;-66
2021/12/26 12:41:28;;;;;;;5.40;1.77;;;8.10;99.90;;;;;;5014137;28;20501;-65
2021/12/26 12:43:59;;;;;;;4.00;1.80;;;8.00;99.90;;;;;;5013958;28;20844;-65
2021/12/26 12:46:25;;;;;;;3.93;1.80;;;7.80;99.90;;;;;;5013341;28;20401;-65
2021/12/26 12:49:03;;;;;;;5.33;1.70;;;7.70;99.90;;;;;;5013968;28;20506;-66
2021/12/26 12:51:32;;;;;;;4.80;2.07;;;7.60;99.90;;;;;;5014342;28;20875;-66
2021/12/26 12:54:00;;;;;;;2.90;1.93;;;7.60;99.90;;;;;;5013968;28;20981;-66
2021/12/26 12:56:33;;;;;;;5.17;2.10;;;7.50;99.90;;;;;;5013683;28;20422;-65
2021/12/26 12:59:17;;;;;;;5.10;2.63;;;7.50;99.90;;;;;;5013644;28;20414;-66
2021/12/26 13:01:55;;;;;;;4.10;1.87;;;7.50;99.90;;;;;;5013765;28;20417;-65